Time;durP1;ratioP1;P1;durP2;ratioP2;P2;SDS_P1;SDS_P2;PMS_P1;PMS_P2;Temp;Humidity;BMP_temperature;BMP_pressure;BME280_temperature;BME280_humidity;BME280_pressure;Samples;Min_cycle;Max_cycle;Signal;HPM_P1;HPM_P2
2023/05/03 00:01:42;;;;;;;16.33;6.68;;;6.30;99.90;;;;;;5038387;28;20034;-75
2023/05/03 00:04:08;;;;;;;16.25;8.25;;;6.30;99.90;;;;;;5039014;28;20033;-73
2023/05/03 00:06:34;;;;;;;22.48;11.13;;;6.20;99.90;;;;;;5039163;28;20033;-73
2023/05/03 00:09:01;;;;;;;16.50;6.72;;;6.20;99.90;;;;;;5048050;28;20025;-72
2023/05/03 00:11:26;;;;;;;17.48;7.22;;;6.20;99.90;;;;;;5028153;28;20029;-73
2023/05/03 00:13:52;;;;;;;16.05;6.18;;;6.20;99.90;;;;;;5044872;28;20037;-73
2023/05/03 00:16:19;;;;;;;10.45;5.90;;;6.20;99.90;;;;;;5048102;28;20025;-73
2023/05/03 00:18:45;;;;;;;13.95;5.53;;;6.10;99.90;;;;;;5038116;28;20204;-73
2023/05/03 00:21:11;;;;;;;9.70;5.32;;;6.10;99.90;;;;;;5027586;28;20025;-74
2023/05/03 00:23:36;;;;;;;16.90;5.65;;;6.10;99.90;;;;;;5052147;28;20040;-73
2023/05/03 00:26:02;;;;;;;12.25;5.88;;;6.10;99.90;;;;;;5037218;28;20030;-71
2023/05/03 00:28:27;;;;;;;12.90;5.95;;;6.10;99.90;;;;;;5043163;28;20041;-72
2023/05/03 00:30:53;;;;;;;16.02;5.55;;;6.10;99.90;;;;;;5051308;28;20861;-73
2023/05/03 00:33:19;;;;;;;12.32;5.45;;;6.10;99.90;;;;;;5025603;28;20033;-73
2023/05/03 00:35:45;;;;;;;10.63;5.35;;;6.10;99.90;;;;;;5027382;28;20041;-72
2023/05/03 00:38:13;;;;;;;13.10;4.68;;;6.10;99.90;;;;;;5032439;28;20049;-73
2023/05/03 00:40:38;;;;;;;13.07;5.57;;;6.10;99.90;;;;;;5033887;28;20022;-72
2023/05/03 00:43:04;;;;;;;8.95;4.70;;;6.10;99.90;;;;;;5044417;28;20036;-74
2023/05/03 00:45:32;;;;;;;12.82;5.50;;;6.10;99.90;;;;;;5034339;28;20018;-74
2023/05/03 00:47:58;;;;;;;16.25;5.47;;;6.10;99.90;;;;;;5034220;28;20120;-71
2023/05/03 00:50:24;;;;;;;11.50;4.68;;;6.10;99.90;;;;;;5022066;28;20397;-72
2023/05/03 00:52:50;;;;;;;10.85;4.90;;;6.10;99.90;;;;;;5034739;28;20111;-71
2023/05/03 00:55:16;;;;;;;12.63;5.10;;;6.00;99.90;;;;;;5033305;28;20041;-75
2023/05/03 00:57:42;;;;;;;11.20;4.63;;;6.00;99.90;;;;;;5034200;28;20454;-73
2023/05/03 01:00:09;;;;;;;11.88;5.60;;;6.00;99.90;;;;;;5038306;28;20033;-73
2023/05/03 01:02:35;;;;;;;13.02;5.60;;;6.00;99.90;;;;;;5034467;28;20251;-72
2023/05/03 01:05:02;;;;;;;10.20;5.15;;;6.00;99.90;;;;;;5034480;28;20064;-72
2023/05/03 01:08:11;;;;;;;11.80;5.60;;;6.00;99.90;;;;;;5033420;28;20124;-72
2023/05/03 01:11:00;;;;;;;11.52;5.07;;;5.90;99.90;;;;;;5023644;28;20069;-72
2023/05/03 01:13:35;;;;;;;11.80;5.32;;;5.90;99.90;;;;;;5021003;28;20036;-73
2023/05/03 01:16:13;;;;;;;11.13;5.10;;;5.90;99.90;;;;;;5033953;28;20426;-71
2023/05/03 01:18:42;;;;;;;10.45;5.05;;;5.90;99.90;;;;;;5034011;28;20108;-72
2023/05/03 01:21:09;;;;;;;13.30;5.88;;;5.90;99.90;;;;;;5018581;28;20021;-73
2023/05/03 01:24:08;;;;;;;12.05;5.47;;;5.90;99.90;;;;;;5033595;28;20091;-71
2023/05/03 01:26:34;;;;;;;12.85;5.97;;;5.90;99.90;;;;;;5033755;28;20025;-75
2023/05/03 01:28:59;;;;;;;13.02;5.35;;;6.00;99.90;;;;;;5034142;28;20476;-73
2023/05/03 01:31:34;;;;;;;12.57;5.60;;;6.00;99.90;;;;;;5033835;28;20030;-73
2023/05/03 01:34:24;;;;;;;11.63;5.50;;;6.10;99.90;;;;;;5044062;28;20028;-73
2023/05/03 01:36:52;;;;;;;11.82;5.55;;;6.10;99.90;;;;;;5036580;28;20045;-72
2023/05/03 01:39:34;;;;;;;13.40;5.57;;;6.20;99.90;;;;;;5047751;28;20029;-72
2023/05/03 01:42:02;;;;;;;13.77;5.68;;;6.20;99.90;;;;;;5044329;28;20766;-72
2023/05/03 01:44:29;;;;;;;13.15;5.97;;;6.20;99.90;;;;;;5050089;28;20101;-72
2023/05/03 01:46:56;;;;;;;15.07;6.30;;;6.20;99.90;;;;;;5036209;28;20049;-73
2023/05/03 01:49:21;;;;;;;11.65;5.30;;;6.30;99.90;;;;;;5047247;28;20048;-74
2023/05/03 01:51:47;;;;;;;13.77;5.85;;;6.30;99.90;;;;;;5041975;28;20449;-72
2023/05/03 01:54:12;;;;;;;13.23;5.70;;;6.30;99.90;;;;;;5040249;28;20060;-74
2023/05/03 01:56:38;;;;;;;15.57;8.07;;;6.30;99.90;;;;;;5048727;28;20044;-70
2023/05/03 01:59:04;;;;;;;18.92;7.03;;;6.30;99.90;;;;;;5036198;28;20408;-71
2023/05/03 02:01:30;;;;;;;11.32;5.80;;;6.20;99.90;;;;;;5045923;28;20022;-73
2023/05/03 02:03:55;;;;;;;11.23;5.30;;;6.20;99.90;;;;;;5043033;28;20503;-72
2023/05/03 02:06:22;;;;;;;10.95;5.78;;;6.20;99.90;;;;;;5038194;28;20034;-74
2023/05/03 02:08:48;;;;;;;12.98;6.47;;;6.20;99.90;;;;;;5048870;28;20041;-74
2023/05/03 02:11:13;;;;;;;13.70;5.82;;;6.20;99.90;;;;;;5036998;28;20056;-72
2023/05/03 02:13:39;;;;;;;15.60;6.03;;;6.20;99.90;;;;;;5044523;28;20025;-72
2023/05/03 02:16:05;;;;;;;13.15;6.63;;;6.20;99.90;;;;;;5044019;28;20051;-71
2023/05/03 02:18:30;;;;;;;14.70;6.25;;;6.20;99.90;;;;;;5036542;28;20112;-72
2023/05/03 02:20:56;;;;;;;13.75;6.10;;;6.20;99.90;;;;;;5048420;28;20072;-72
2023/05/03 02:23:22;;;;;;;16.55;6.93;;;6.20;99.90;;;;;;5037795;28;20025;-72
2023/05/03 02:25:48;;;;;;;13.63;6.20;;;6.20;99.90;;;;;;5043037;28;20083;-72
2023/05/03 02:28:14;;;;;;;13.73;5.53;;;6.20;99.90;;;;;;5044843;28;20073;-73
2023/05/03 02:30:41;;;;;;;13.32;6.00;;;6.20;99.90;;;;;;5035530;28;20026;-72
2023/05/03 02:33:06;;;;;;;11.88;5.63;;;6.20;99.90;;;;;;5048692;28;20029;-72
2023/05/03 02:35:32;;;;;;;14.80;5.90;;;6.20;99.90;;;;;;5037550;28;20040;-72
2023/05/03 02:37:58;;;;;;;13.40;5.32;;;6.20;99.90;;;;;;5041531;28;20112;-72
2023/05/03 02:40:23;;;;;;;15.15;5.72;;;6.20;99.90;;;;;;5046245;28;20468;-72
2023/05/03 02:42:49;;;;;;;11.85;5.90;;;6.10;99.90;;;;;;5035392;28;20075;-71
2023/05/03 02:45:15;;;;;;;12.70;5.88;;;6.10;99.90;;;;;;5047124;28;20040;-72
2023/05/03 02:47:41;;;;;;;12.55;5.82;;;6.00;99.90;;;;;;5040102;28;20033;-72
2023/05/03 02:50:07;;;;;;;12.63;6.82;;;6.00;99.90;;;;;;5045224;28;20036;-72
2023/05/03 02:52:32;;;;;;;12.05;6.50;;;5.90;99.90;;;;;;5036323;28;20028;-72
2023/05/03 02:54:58;;;;;;;12.70;6.03;;;5.90;99.90;;;;;;5032964;28;20029;-72
2023/05/03 02:57:24;;;;;;;14.77;6.38;;;5.90;99.90;;;;;;5045710;28;20061;-72
2023/05/03 02:59:50;;;;;;;11.77;5.57;;;5.80;99.90;;;;;;5041555;28;20062;-72
2023/05/03 03:02:15;;;;;;;13.25;6.07;;;5.80;99.90;;;;;;5038387;28;20041;-71
2023/05/03 03:04:41;;;;;;;19.88;6.57;;;5.80;99.90;;;;;;5048153;28;20036;-71
2023/05/03 03:07:07;;;;;;;14.80;6.60;;;5.80;99.90;;;;;;5034200;28;20530;-73
2023/05/03 03:09:32;;;;;;;11.95;6.32;;;5.80;99.90;;;;;;5044634;28;20104;-72
2023/05/03 03:12:01;;;;;;;14.73;5.95;;;5.70;99.90;;;;;;5042607;28;20112;-72
2023/05/03 03:14:26;;;;;;;13.60;6.10;;;5.70;99.90;;;;;;5037095;28;20121;-71
2023/05/03 03:16:52;;;;;;;13.63;6.57;;;5.60;99.90;;;;;;5048374;28;20116;-76
2023/05/03 03:19:17;;;;;;;13.30;6.45;;;5.60;99.90;;;;;;5036680;28;20029;-72
2023/05/03 03:21:43;;;;;;;14.52;6.60;;;5.60;99.90;;;;;;5043598;28;20029;-73
2023/05/03 03:24:09;;;;;;;13.90;6.30;;;5.50;99.90;;;;;;5044214;28;20037;-74
2023/05/03 03:26:34;;;;;;;15.60;6.57;;;5.50;99.90;;;;;;5035882;28;20021;-71
2023/05/03 03:29:00;;;;;;;14.10;6.82;;;5.50;99.90;;;;;;5048254;28;20505;-73
2023/05/03 03:31:25;;;;;;;14.40;5.93;;;5.40;99.90;;;;;;5041822;28;20028;-72
2023/05/03 03:33:51;;;;;;;12.05;5.93;;;5.40;99.90;;;;;;5045393;28;20060;-72
2023/05/03 03:36:17;;;;;;;12.82;6.00;;;5.40;99.90;;;;;;5047499;28;20047;-72
2023/05/03 03:38:42;;;;;;;14.80;6.13;;;5.30;99.90;;;;;;5038652;28;20488;-74
2023/05/03 03:41:08;;;;;;;11.07;5.78;;;5.30;99.90;;;;;;5051432;28;20033;-74
2023/05/03 03:43:33;;;;;;;14.10;6.35;;;5.30;99.90;;;;;;5043030;28;20043;-71
2023/05/03 03:45:59;;;;;;;12.88;6.20;;;5.30;99.90;;;;;;5044313;28;20049;-78
2023/05/03 03:48:25;;;;;;;15.20;5.50;;;5.30;99.90;;;;;;5049379;28;20260;-75
2023/05/03 03:50:50;;;;;;;15.70;6.22;;;5.20;99.90;;;;;;5038699;28;20373;-74
2023/05/03 03:53:16;;;;;;;13.93;5.70;;;5.20;99.90;;;;;;5050183;28;20057;-76
2023/05/03 03:55:42;;;;;;;9.55;5.63;;;5.20;99.90;;;;;;5043597;28;20044;-75
2023/05/03 03:58:07;;;;;;;13.15;5.93;;;5.20;99.90;;;;;;5043049;28;20037;-74
2023/05/03 04:00:34;;;;;;;12.18;5.22;;;5.20;99.90;;;;;;5049263;28;20147;-71
2023/05/03 04:03:00;;;;;;;15.55;5.53;;;5.20;99.90;;;;;;5042369;28;20104;-73
2023/05/03 04:05:25;;;;;;;12.18;5.43;;;5.20;99.90;;;;;;5046721;28;20111;-73
2023/05/03 04:07:51;;;;;;;15.13;5.75;;;5.30;99.90;;;;;;5045094;28;20033;-71
2023/05/03 04:10:16;;;;;;;12.00;5.82;;;5.30;99.90;;;;;;5048010;28;20465;-71
2023/05/03 04:12:42;;;;;;;11.55;5.75;;;5.30;99.90;;;;;;5038628;28;20037;-72
2023/05/03 04:15:08;;;;;;;13.20;5.85;;;5.30;99.90;;;;;;5051335;28;20120;-73
2023/05/03 04:17:34;;;;;;;11.93;5.40;;;5.40;99.90;;;;;;5041525;28;20067;-71
2023/05/03 04:20:05;;;;;;;12.20;5.65;;;5.40;99.90;;;;;;5043753;28;20056;-74
2023/05/03 04:22:31;;;;;;;12.10;5.35;;;5.50;99.90;;;;;;5049946;28;20040;-72
2023/05/03 04:24:57;;;;;;;12.10;5.50;;;5.50;99.90;;;;;;5037675;28;20369;-73
2023/05/03 04:27:25;;;;;;;13.02;5.10;;;5.60;99.90;;;;;;5048586;28;20049;-72
2023/05/03 04:29:51;;;;;;;11.75;5.22;;;5.70;99.90;;;;;;5044151;28;20017;-74
2023/05/03 04:32:22;;;;;;;10.68;4.90;;;5.80;99.90;;;;;;5040183;28;20421;-74
2023/05/03 04:34:51;;;;;;;12.88;5.40;;;5.90;99.90;;;;;;5050614;28;20033;-73
2023/05/03 04:37:18;;;;;;;12.02;5.30;;;6.00;99.90;;;;;;5039381;28;20021;-72
2023/05/03 04:39:44;;;;;;;11.32;5.10;;;6.10;99.90;;;;;;5045747;28;20040;-74
2023/05/03 04:42:11;;;;;;;8.02;4.75;;;6.20;99.90;;;;;;5045832;28;20025;-76
2023/05/03 04:44:37;;;;;;;11.30;5.15;;;6.30;99.90;;;;;;5050820;28;20057;-72
2023/05/03 04:47:02;;;;;;;9.82;4.80;;;6.50;99.90;;;;;;5037616;28;20487;-73
2023/05/03 04:49:28;;;;;;;10.23;4.93;;;6.60;99.90;;;;;;5048587;28;20500;-73
2023/05/03 04:51:54;;;;;;;13.02;5.30;;;6.70;99.90;;;;;;5042499;28;20049;-74
2023/05/03 04:54:19;;;;;;;12.07;5.25;;;6.80;99.90;;;;;;5047493;28;20086;-73
2023/05/03 04:56:45;;;;;;;11.10;5.28;;;6.90;99.90;;;;;;5035827;28;20128;-77
2023/05/03 04:59:11;;;;;;;11.30;4.82;;;7.00;99.90;;;;;;5049103;28;20064;-74
2023/05/03 05:01:36;;;;;;;10.43;4.97;;;7.20;99.90;;;;;;5033318;28;20025;-75
2023/05/03 05:04:02;;;;;;;10.23;4.63;;;7.30;99.90;;;;;;5033572;28;20028;-74
2023/05/03 05:06:28;;;;;;;12.07;4.65;;;7.40;99.90;;;;;;5033736;28;20029;-73
2023/05/03 05:08:54;;;;;;;9.38;4.68;;;7.60;99.90;;;;;;5032256;28;20043;-75
2023/05/03 05:11:21;;;;;;;8.77;4.13;;;7.70;99.90;;;;;;5033048;28;20021;-75
2023/05/03 05:13:47;;;;;;;10.30;3.92;;;7.80;99.90;;;;;;5033824;28;20472;-73
2023/05/03 05:16:12;;;;;;;9.32;3.40;;;8.00;99.90;;;;;;5033810;28;20042;-75
2023/05/03 05:18:38;;;;;;;8.40;2.92;;;8.10;99.90;;;;;;5033722;28;20040;-72
2023/05/03 05:21:03;;;;;;;9.25;3.08;;;8.30;99.90;;;;;;5033195;28;20033;-74
2023/05/03 05:23:29;;;;;;;11.95;4.28;;;8.40;99.90;;;;;;5033401;28;20029;-75
2023/05/03 05:25:59;;;;;;;10.13;3.20;;;8.50;99.90;;;;;;5032983;28;20026;-72
2023/05/03 05:28:25;;;;;;;8.82;4.15;;;8.70;99.90;;;;;;5032833;28;20045;-74
2023/05/03 05:30:51;;;;;;;8.43;3.72;;;8.80;99.90;;;;;;5033383;28;20072;-74
2023/05/03 05:33:16;;;;;;;10.90;3.70;;;9.00;99.90;;;;;;5033161;28;20107;-72
2023/05/03 05:35:44;;;;;;;12.02;4.07;;;9.10;99.90;;;;;;5033354;28;20064;-75
2023/05/03 05:38:11;;;;;;;11.70;3.72;;;9.20;99.90;;;;;;5033593;28;20097;-74
2023/05/03 05:40:37;;;;;;;9.43;3.10;;;9.30;99.90;;;;;;5033499;28;20033;-74
2023/05/03 05:43:03;;;;;;;5.32;3.40;;;9.40;99.90;;;;;;5032873;28;20017;-75
2023/05/03 05:45:29;;;;;;;10.90;3.78;;;9.50;99.90;;;;;;5032632;28;20040;-73
2023/05/03 05:47:55;;;;;;;8.50;3.55;;;9.70;99.90;;;;;;5033147;28;20032;-73
2023/05/03 05:50:21;;;;;;;9.68;3.30;;;9.80;99.90;;;;;;5032786;28;20104;-73
2023/05/03 05:52:46;;;;;;;10.10;3.80;;;9.90;99.90;;;;;;5032577;28;20366;-73
2023/05/03 05:55:13;;;;;;;8.80;3.67;;;10.00;99.90;;;;;;5032877;28;20116;-71
2023/05/03 05:57:39;;;;;;;8.10;3.97;;;10.20;99.90;;;;;;5032342;28;20462;-73
2023/05/03 06:00:13;;;;;;;10.05;3.95;;;10.30;99.90;;;;;;5032679;28;20031;-71
2023/05/03 06:02:39;;;;;;;9.88;3.78;;;10.40;99.90;;;;;;5032498;28;20033;-74
2023/05/03 06:05:05;;;;;;;10.30;3.33;;;10.60;99.90;;;;;;5032880;28;20111;-71
2023/05/03 06:07:31;;;;;;;7.55;3.10;;;10.60;99.90;;;;;;5032788;28;20061;-71
2023/05/03 06:09:57;;;;;;;10.40;2.83;;;10.70;99.90;;;;;;5032644;28;20056;-72
2023/05/03 06:12:22;;;;;;;7.32;3.22;;;10.80;99.90;;;;;;5032715;28;20385;-72
2023/05/03 06:14:48;;;;;;;9.55;3.20;;;11.00;99.90;;;;;;5032541;28;20045;-72
2023/05/03 06:17:13;;;;;;;10.10;3.30;;;11.10;99.90;;;;;;5032204;28;20032;-73
2023/05/03 06:19:39;;;;;;;7.43;2.67;;;11.30;99.90;;;;;;5032433;28;20026;-72
2023/05/03 06:22:05;;;;;;;14.25;3.03;;;11.40;99.90;;;;;;5032461;28;20036;-73
2023/05/03 06:24:31;;;;;;;7.45;2.33;;;11.50;99.90;;;;;;5032084;28;20108;-73
2023/05/03 06:26:59;;;;;;;9.50;2.42;;;11.50;99.90;;;;;;5030809;28;20117;-73
2023/05/03 06:29:25;;;;;;;7.63;2.45;;;11.60;99.90;;;;;;5025953;28;20036;-73
2023/05/03 06:31:52;;;;;;;7.28;2.63;;;11.60;99.90;;;;;;5030952;28;20539;-73
2023/05/03 06:34:20;;;;;;;10.07;2.13;;;11.60;99.90;;;;;;5031715;28;20033;-73
2023/05/03 06:36:46;;;;;;;9.43;1.85;;;11.60;99.90;;;;;;5031238;28;20044;-73
2023/05/03 06:39:11;;;;;;;6.00;1.75;;;11.70;99.90;;;;;;5028468;28;20677;-73
2023/05/03 06:41:37;;;;;;;8.02;2.20;;;11.70;99.90;;;;;;5037618;28;20539;-73
2023/05/03 06:44:03;;;;;;;4.38;1.52;;;11.80;99.90;;;;;;5042101;28;20052;-72
2023/05/03 06:46:32;;;;;;;7.30;1.63;;;11.90;99.90;;;;;;5051549;28;20025;-74
2023/05/03 06:48:57;;;;;;;5.40;1.42;;;11.90;99.90;;;;;;5030662;28;20037;-74
2023/05/03 06:51:27;;;;;;;9.60;3.50;;;11.90;99.40;;;;;;5037906;28;20090;-73
2023/05/03 06:53:59;;;;;;;3.47;1.88;;;11.90;99.30;;;;;;5035977;28;20017;-72
2023/05/03 06:56:24;;;;;;;7.22;2.08;;;11.90;99.30;;;;;;5034740;28;20044;-73
2023/05/03 06:58:50;;;;;;;5.65;2.55;;;11.90;99.30;;;;;;5048108;28;20029;-73
2023/05/03 07:01:17;;;;;;;5.60;1.75;;;12.00;99.10;;;;;;5037365;28;20036;-73
2023/05/03 07:03:43;;;;;;;7.90;1.90;;;12.10;98.90;;;;;;5042228;28;20386;-73
2023/05/03 07:06:09;;;;;;;3.40;1.33;;;12.40;98.80;;;;;;5046161;28;20031;-73
2023/05/03 07:08:35;;;;;;;5.63;1.40;;;13.00;98.10;;;;;;5034944;28;20026;-73
2023/05/03 07:11:00;;;;;;;3.28;1.50;;;13.90;96.80;;;;;;5037871;28;20341;-73
2023/05/03 07:13:26;;;;;;;7.75;2.03;;;14.10;95.90;;;;;;5042638;28;20053;-73
2023/05/03 07:15:52;;;;;;;5.15;1.85;;;14.10;95.60;;;;;;5055402;28;20049;-73
2023/05/03 07:18:17;;;;;;;10.45;2.20;;;14.20;95.50;;;;;;5040268;28;20029;-74
2023/05/03 07:20:43;;;;;;;4.57;1.65;;;14.30;95.70;;;;;;5052362;28;20041;-74
2023/05/03 07:23:08;;;;;;;3.95;1.38;;;14.60;95.00;;;;;;5037982;28;20102;-74
2023/05/03 07:25:34;;;;;;;3.55;1.52;;;14.70;94.80;;;;;;5042578;28;20500;-74
2023/05/03 07:28:00;;;;;;;3.33;1.30;;;15.10;94.10;;;;;;5029919;28;20079;-74
2023/05/03 07:30:25;;;;;;;5.05;1.20;;;15.40;93.80;;;;;;5050828;28;20025;-74
2023/05/03 07:32:51;;;;;;;3.58;1.30;;;15.60;92.80;;;;;;5041771;28;20025;-74
2023/05/03 07:35:18;;;;;;;4.97;1.42;;;15.50;92.60;;;;;;5043957;28;20115;-74
2023/05/03 07:37:43;;;;;;;3.85;1.20;;;15.30;92.60;;;;;;5045325;28;20029;-74
2023/05/03 07:40:10;;;;;;;2.92;1.10;;;15.30;92.30;;;;;;5048366;28;20048;-74
2023/05/03 07:42:37;;;;;;;4.88;1.42;;;15.30;92.30;;;;;;5038328;28;20023;-74
2023/05/03 07:45:03;;;;;;;4.88;1.23;;;15.30;91.90;;;;;;5052966;28;20045;-74
2023/05/03 07:47:29;;;;;;;4.78;1.30;;;15.20;91.90;;;;;;5053448;28;20033;-74
2023/05/03 07:49:54;;;;;;;3.22;1.40;;;15.10;92.60;;;;;;5047190;28;20025;-77
2023/05/03 07:52:20;;;;;;;8.60;2.38;;;15.30;92.50;;;;;;5039962;28;20076;-75
2023/05/03 07:54:45;;;;;;;6.78;1.45;;;15.60;91.90;;;;;;5045932;28;20275;-75
2023/05/03 07:57:12;;;;;;;5.78;1.20;;;15.90;91.50;;;;;;5033711;28;20092;-76
2023/05/03 07:59:38;;;;;;;4.88;1.17;;;16.40;90.90;;;;;;5032165;28;20029;-74
2023/05/03 08:02:04;;;;;;;5.20;1.27;;;16.70;90.40;;;;;;5032227;28;20052;-75
2023/05/03 08:04:29;;;;;;;6.88;1.60;;;17.00;89.70;;;;;;5033797;28;20462;-74
2023/05/03 08:06:55;;;;;;;7.35;1.58;;;17.60;89.20;;;;;;5033278;28;20041;-74
2023/05/03 08:09:21;;;;;;;4.18;1.25;;;18.10;86.60;;;;;;5032817;28;20018;-74
2023/05/03 08:11:47;;;;;;;4.88;1.35;;;18.70;85.20;;;;;;5033674;28;20018;-74
2023/05/03 08:14:12;;;;;;;3.72;1.00;;;19.60;82.80;;;;;;5033557;28;20048;-74
2023/05/03 08:16:38;;;;;;;5.60;1.05;;;20.60;80.80;;;;;;5032310;28;20036;-74
2023/05/03 08:19:04;;;;;;;5.38;1.20;;;21.30;78.10;;;;;;5033324;28;20028;-74
2023/05/03 08:21:30;;;;;;;2.65;1.40;;;21.70;76.60;;;;;;5033459;28;20022;-74
2023/05/03 08:23:55;;;;;;;7.38;1.67;;;22.40;74.10;;;;;;5033172;28;20034;-74
2023/05/03 08:26:23;;;;;;;5.00;1.33;;;22.90;73.10;;;;;;5034084;28;20026;-74
2023/05/03 08:28:48;;;;;;;3.88;0.93;;;23.20;71.30;;;;;;5033214;28;20115;-75
2023/05/03 08:31:14;;;;;;;5.00;1.40;;;23.00;70.80;;;;;;5034790;28;20465;-75
2023/05/03 08:33:40;;;;;;;5.38;1.20;;;22.90;70.50;;;;;;5034788;28;20029;-76
2023/05/03 08:36:06;;;;;;;7.03;1.40;;;22.70;71.10;;;;;;5034048;28;20413;-73
2023/05/03 08:38:32;;;;;;;3.50;1.38;;;22.10;70.60;;;;;;5033664;28;20080;-75
2023/05/03 08:41:07;;;;;;;1.83;1.20;;;21.90;71.40;;;;;;5034141;28;20022;-74
2023/05/03 08:43:37;;;;;;;3.58;1.30;;;22.30;70.10;;;;;;5034681;28;20025;-72
2023/05/03 08:46:03;;;;;;;8.07;1.65;;;22.30;70.00;;;;;;5034321;28;20049;-73
2023/05/03 08:48:30;;;;;;;3.67;1.33;;;22.00;70.40;;;;;;5033660;28;20068;-73
2023/05/03 08:50:56;;;;;;;3.58;1.30;;;22.10;70.50;;;;;;5034035;28;20112;-74
2023/05/03 08:53:22;;;;;;;6.13;1.30;;;22.80;69.10;;;;;;5032522;28;20022;-74
2023/05/03 08:55:47;;;;;;;5.32;1.13;;;23.50;68.40;;;;;;5033705;28;20049;-73
2023/05/03 08:58:13;;;;;;;3.72;1.30;;;24.40;67.20;;;;;;5033997;28;20079;-74
2023/05/03 09:00:43;;;;;;;3.80;1.10;;;25.00;66.20;;;;;;5032654;28;20482;-73
2023/05/03 09:03:09;;;;;;;7.13;1.30;;;25.60;64.40;;;;;;5033586;28;20083;-73
2023/05/03 09:05:37;;;;;;;4.95;1.30;;;25.90;63.70;;;;;;5033814;28;20030;-76
2023/05/03 09:08:06;;;;;;;7.65;1.52;;;26.20;63.50;;;;;;5034242;28;20040;-73
2023/05/03 09:10:35;;;;;;;4.20;1.10;;;26.40;62.90;;;;;;5033615;28;20108;-73
2023/05/03 09:13:01;;;;;;;4.97;1.13;;;26.30;62.40;;;;;;5034091;28;20048;-72
2023/05/03 09:15:30;;;;;;;6.07;1.42;;;26.00;62.40;;;;;;5033419;28;20052;-74
2023/05/03 09:18:10;;;;;;;5.18;1.38;;;25.80;62.50;;;;;;5033310;28;20112;-74
2023/05/03 09:20:37;;;;;;;1.80;1.00;;;26.00;62.60;;;;;;5032549;28;20036;-74
2023/05/03 09:23:03;;;;;;;7.15;1.50;;;26.40;62.00;;;;;;5033647;28;20061;-74
2023/05/03 09:25:50;;;;;;;4.88;1.20;;;26.80;61.60;;;;;;5033112;28;20068;-72
2023/05/03 09:28:16;;;;;;;3.67;1.35;;;27.30;60.60;;;;;;5032154;28;20051;-73
2023/05/03 09:30:43;;;;;;;2.90;1.10;;;27.90;60.50;;;;;;5032877;28;20376;-73
2023/05/03 09:33:10;;;;;;;6.93;1.52;;;27.80;59.60;;;;;;5032518;28;20029;-73
2023/05/03 09:35:36;;;;;;;6.05;1.60;;;27.10;59.60;;;;;;5032297;28;20049;-72
2023/05/03 09:38:02;;;;;;;5.10;1.17;;;26.60;59.90;;;;;;5032909;28;20041;-72
2023/05/03 09:40:28;;;;;;;3.67;1.27;;;26.70;59.50;;;;;;5029902;28;20017;-71
2023/05/03 09:43:15;;;;;;;6.53;1.30;;;26.80;59.50;;;;;;5033136;28;20465;-72
2023/05/03 09:45:40;;;;;;;3.40;1.25;;;26.20;59.70;;;;;;5052828;28;20037;-72
2023/05/03 09:48:07;;;;;;;5.97;1.70;;;25.60;60.40;;;;;;5052920;28;20090;-73
2023/05/03 09:50:34;;;;;;;7.70;1.58;;;25.40;61.10;;;;;;5052891;28;20473;-73
2023/05/03 09:53:02;;;;;;;2.53;1.40;;;25.50;60.30;;;;;;5052678;28;20104;-73
2023/05/03 09:55:32;;;;;;;1.50;1.40;;;25.40;60.40;;;;;;5046839;28;20044;-73
2023/05/03 09:57:58;;;;;;;5.55;1.70;;;25.10;60.60;;;;;;5032793;28;20014;-73
2023/05/03 10:00:24;;;;;;;6.65;1.80;;;25.10;60.70;;;;;;5032414;28;20377;-72
2023/05/03 10:02:53;;;;;;;5.45;1.52;;;25.40;60.30;;;;;;5032812;28;20022;-71
2023/05/03 10:05:20;;;;;;;3.17;1.60;;;25.40;60.30;;;;;;5032625;28;20068;-73
2023/05/03 10:07:49;;;;;;;5.95;1.63;;;25.80;60.30;;;;;;5033056;28;20036;-72
2023/05/03 10:10:16;;;;;;;5.68;1.67;;;26.30;60.00;;;;;;5033412;28;20183;-74
2023/05/03 10:12:43;;;;;;;7.93;1.92;;;26.40;59.00;;;;;;5032289;28;20026;-74
2023/05/03 10:15:11;;;;;;;11.43;2.00;;;26.10;59.60;;;;;;5024232;28;20041;-72
2023/05/03 10:17:38;;;;;;;6.78;1.80;;;26.00;59.50;;;;;;5032705;28;20029;-74
2023/05/03 10:20:26;;;;;;;13.05;2.10;;;25.80;59.30;;;;;;5031763;28;20152;-71
2023/05/03 10:23:11;;;;;;;5.57;1.88;;;25.80;59.50;;;;;;5021743;28;20498;-73
2023/05/03 10:25:38;;;;;;;4.63;2.13;;;26.00;59.80;;;;;;5030335;28;20044;-73
2023/05/03 10:28:08;;;;;;;9.63;1.77;;;26.50;59.70;;;;;;5031367;28;20045;-74
2023/05/03 10:30:40;;;;;;;5.97;2.28;;;27.00;58.70;;;;;;5030345;28;20030;-72
2023/05/03 10:33:08;;;;;;;;;;;27.00;58.50;;;;;;5032463;28;20167;-73
2023/05/03 10:35:39;;;;;;;8.07;2.33;;;27.30;58.50;;;;;;5031665;28;19920;-72
2023/05/03 10:38:20;;;;;;;4.13;1.70;;;27.90;58.40;;;;;;5032394;28;20066;-74
2023/05/03 10:40:46;;;;;;;7.93;1.85;;;28.10;57.00;;;;;;5030523;28;20488;-75
2023/05/03 10:43:30;;;;;;;4.80;1.88;;;28.00;57.40;;;;;;5039165;28;20056;-74
2023/05/03 10:46:07;;;;;;;5.18;1.90;;;28.30;56.90;;;;;;5050903;28;20098;-72
2023/05/03 10:48:34;;;;;;;4.80;1.77;;;28.20;56.50;;;;;;5041018;28;20079;-72
2023/05/03 10:51:29;;;;;;;3.90;2.03;;;28.10;56.70;;;;;;5032477;28;20068;-72
2023/05/03 10:53:54;;;;;;;4.85;2.30;;;27.70;57.20;;;;;;5032650;28;20544;-73
2023/05/03 10:56:20;;;;;;;5.55;2.20;;;27.70;57.50;;;;;;5035254;28;20041;-71
2023/05/03 10:58:48;;;;;;;6.63;1.92;;;27.60;57.10;;;;;;5052270;28;20047;-72
2023/05/03 11:01:16;;;;;;;6.40;1.90;;;27.60;57.30;;;;;;5051765;28;20033;-72
2023/05/03 11:04:14;;;;;;;5.38;1.98;;;28.00;56.90;;;;;;5051837;28;20033;-71
2023/05/03 11:06:40;;;;;;;5.95;1.92;;;28.00;56.80;;;;;;5042641;28;20036;-72
2023/05/03 11:09:08;;;;;;;6.45;2.42;;;27.70;56.80;;;;;;5050820;28;20029;-72
2023/05/03 11:11:38;;;;;;;3.92;2.00;;;27.20;56.90;;;;;;5033261;28;20030;-73
2023/05/03 11:14:04;;;;;;;4.45;2.05;;;27.10;57.30;;;;;;5031731;28;20021;-73
2023/05/03 11:16:30;;;;;;;6.28;1.70;;;27.30;56.90;;;;;;5031561;28;20124;-72
2023/05/03 11:18:55;;;;;;;4.57;2.00;;;27.30;56.90;;;;;;5031599;28;20164;-71
2023/05/03 11:21:22;;;;;;;5.80;2.03;;;27.10;57.10;;;;;;5031542;28;20373;-74
2023/05/03 11:23:48;;;;;;;3.63;2.33;;;27.10;57.10;;;;;;5028999;28;20113;-71
2023/05/03 11:26:14;;;;;;;7.57;2.15;;;27.30;56.90;;;;;;5030885;28;20744;-72
2023/05/03 11:28:41;;;;;;;5.30;1.95;;;27.60;56.90;;;;;;5031694;28;20140;-72
2023/05/03 11:31:08;;;;;;;5.45;2.35;;;27.90;56.50;;;;;;5031708;28;20119;-72
2023/05/03 11:33:36;;;;;;;8.30;2.50;;;28.00;56.20;;;;;;5029644;28;20033;-72
2023/05/03 11:36:03;;;;;;;5.28;2.08;;;28.00;56.00;;;;;;5027346;28;20030;-74
2023/05/03 11:38:32;;;;;;;9.35;2.45;;;27.80;56.20;;;;;;5031697;28;20037;-73
2023/05/03 11:40:59;;;;;;;4.43;2.38;;;27.90;56.40;;;;;;5031929;28;20037;-71
2023/05/03 11:43:29;;;;;;;4.38;2.03;;;28.00;55.90;;;;;;5029412;28;20049;-71
2023/05/03 11:45:58;;;;;;;7.50;2.10;;;28.00;55.80;;;;;;5039996;28;20406;-73
2023/05/03 11:48:26;;;;;;;8.27;2.40;;;27.80;56.00;;;;;;5038637;28;20381;-75
2023/05/03 11:50:54;;;;;;;6.45;2.35;;;27.90;56.20;;;;;;5053129;28;20036;-73
2023/05/03 11:53:24;;;;;;;8.77;2.50;;;28.20;55.80;;;;;;5039480;28;20466;-73
2023/05/03 11:55:52;;;;;;;4.97;2.30;;;28.50;55.70;;;;;;5015501;28;20046;-72
2023/05/03 11:58:26;;;;;;;6.57;2.50;;;28.40;55.50;;;;;;5042192;28;20456;-72
2023/05/03 12:00:54;;;;;;;6.03;2.30;;;28.20;55.20;;;;;;5034087;28;20110;-74
2023/05/03 12:03:25;;;;;;;5.32;2.63;;;27.90;55.60;;;;;;5027690;28;20030;-74
2023/05/03 12:05:54;;;;;;;5.13;2.63;;;27.80;55.40;;;;;;5015090;28;20038;-72
2023/05/03 12:08:20;;;;;;;5.22;2.63;;;27.80;55.70;;;;;;5026612;28;20025;-72
2023/05/03 12:10:49;;;;;;;6.38;2.80;;;27.90;56.00;;;;;;5033592;28;20409;-71
2023/05/03 12:13:34;;;;;;;5.85;2.35;;;27.80;56.00;;;;;;5034964;28;20076;-71
2023/05/03 12:16:02;;;;;;;4.40;2.67;;;27.80;55.80;;;;;;5031403;28;20033;-72
2023/05/03 12:18:45;;;;;;;5.03;2.42;;;27.80;55.70;;;;;;5015303;28;20022;-74
2023/05/03 12:21:11;;;;;;;4.30;2.55;;;27.80;55.80;;;;;;5028312;28;20029;-72
2023/05/03 12:23:36;;;;;;;4.43;2.40;;;27.70;56.20;;;;;;5023292;28;20025;-72
2023/05/03 12:26:02;;;;;;;6.15;2.60;;;27.70;55.90;;;;;;5034690;28;20057;-73
2023/05/03 12:28:28;;;;;;;8.02;2.70;;;27.90;55.50;;;;;;5032381;28;20049;-73
2023/05/03 12:30:53;;;;;;;6.25;2.65;;;27.90;55.60;;;;;;5014862;28;20026;-74
2023/05/03 12:33:20;;;;;;;3.65;2.30;;;27.80;55.50;;;;;;5014405;28;20029;-73
2023/05/03 12:35:45;;;;;;;6.40;2.50;;;27.60;55.70;;;;;;5014524;28;20045;-71
2023/05/03 12:38:11;;;;;;;5.85;2.80;;;27.20;56.30;;;;;;5028754;28;20497;-72
2023/05/03 12:40:37;;;;;;;4.10;2.47;;;26.70;56.50;;;;;;5032585;28;20473;-70
2023/05/03 12:43:03;;;;;;;7.55;2.80;;;26.40;57.00;;;;;;5032997;28;20477;-70
2023/05/03 12:45:30;;;;;;;7.05;2.90;;;26.00;57.80;;;;;;5034410;28;20083;-72
2023/05/03 12:47:57;;;;;;;5.10;2.10;;;25.60;58.00;;;;;;5034176;28;20025;-73
2023/05/03 12:50:22;;;;;;;4.57;2.60;;;25.10;58.50;;;;;;5034223;28;20025;-73